sensor_id;sensor_type;location;lat;lon;timestamp;P1;durP1;ratioP1;P2;durP2;ratioP2
57615;SDS011;43816;52.054;-9.494;2023-05-10T00:00:04;2.73;;;1.50;;
57615;SDS011;43816;52.054;-9.494;2023-05-10T00:00:18;3.00;;;1.70;;
57615;SDS011;43816;52.054;-9.494;2023-05-10T00:00:32;2.65;;;1.52;;
57615;SDS011;43816;52.054;-9.494;2023-05-10T00:00:45;2.60;;;1.33;;
57615;SDS011;43816;52.054;-9.494;2023-05-10T00:00:58;2.90;;;1.50;;
57615;SDS011;43816;52.054;-9.494;2023-05-10T00:01:08;3.03;;;1.50;;
57615;SDS011;43816;52.054;-9.494;2023-05-10T00:01:18;2.63;;;1.53;;
57615;SDS011;43816;52.054;-9.494;2023-05-10T00:01:28;2.55;;;1.45;;
57615;SDS011;43816;52.054;-9.494;2023-05-10T00:01:39;2.50;;;1.50;;
57615;SDS011;43816;52.054;-9.494;2023-05-10T00:01:49;2.55;;;1.40;;
57615;SDS011;43816;52.054;-9.494;2023-05-10T00:02:03;3.40;;;1.50;;
57615;SDS011;43816;52.054;-9.494;2023-05-10T00:02:13;3.53;;;1.50;;
57615;SDS011;43816;52.054;-9.494;2023-05-10T00:02:32;3.57;;;1.57;;
57615;SDS011;43816;52.054;-9.494;2023-05-10T00:02:42;2.70;;;1.50;;
57615;SDS011;43816;52.054;-9.494;2023-05-10T00:02:56;2.30;;;1.50;;
57615;SDS011;43816;52.054;-9.494;2023-05-10T00:03:09;2.53;;;1.40;;
57615;SDS011;43816;52.054;-9.494;2023-05-10T00:03:19;2.70;;;1.27;;
57615;SDS011;43816;52.054;-9.494;2023-05-10T00:03:33;2.90;;;1.42;;
57615;SDS011;43816;52.054;-9.494;2023-05-10T00:03:43;2.53;;;1.50;;
57615;SDS011;43816;52.054;-9.494;2023-05-10T00:03:53;2.60;;;1.67;;
57615;SDS011;43816;52.054;-9.494;2023-05-10T00:04:10;2.60;;;1.60;;
57615;SDS011;43816;52.054;-9.494;2023-05-10T00:04:20;3.17;;;1.58;;
57615;SDS011;43816;52.054;-9.494;2023-05-10T00:04:30;3.43;;;1.50;;
57615;SDS011;43816;52.054;-9.494;2023-05-10T00:04:41;2.97;;;1.40;;
57615;SDS011;43816;52.054;-9.494;2023-05-10T00:04:51;2.97;;;1.52;;
57615;SDS011;43816;52.054;-9.494;2023-05-10T00:05:01;2.53;;;1.43;;
57615;SDS011;43816;52.054;-9.494;2023-05-10T00:05:12;2.67;;;1.40;;
57615;SDS011;43816;52.054;-9.494;2023-05-10T00:05:22;2.87;;;1.33;;
57615;SDS011;43816;52.054;-9.494;2023-05-10T00:05:32;3.17;;;1.50;;
57615;SDS011;43816;52.054;-9.494;2023-05-10T00:05:43;3.50;;;1.60;;
57615;SDS011;43816;52.054;-9.494;2023-05-10T00:05:53;3.30;;;1.60;;
57615;SDS011;43816;52.054;-9.494;2023-05-10T00:06:12;3.53;;;1.60;;
57615;SDS011;43816;52.054;-9.494;2023-05-10T00:06:22;3.60;;;1.60;;
57615;SDS011;43816;52.054;-9.494;2023-05-10T00:06:33;2.90;;;1.50;;
57615;SDS011;43816;52.054;-9.494;2023-05-10T00:06:52;2.45;;;1.30;;
57615;SDS011;43816;52.054;-9.494;2023-05-10T00:07:06;3.08;;;1.42;;
57615;SDS011;43816;52.054;-9.494;2023-05-10T00:07:16;2.83;;;1.48;;
57615;SDS011;43816;52.054;-9.494;2023-05-10T00:07:26;2.90;;;1.50;;
57615;SDS011;43816;52.054;-9.494;2023-05-10T00:07:36;2.42;;;1.30;;
57615;SDS011;43816;52.054;-9.494;2023-05-10T00:07:47;2.70;;;1.30;;
57615;SDS011;43816;52.054;-9.494;2023-05-10T00:07:57;2.50;;;1.23;;
57615;SDS011;43816;52.054;-9.494;2023-05-10T00:08:07;2.93;;;1.40;;
57615;SDS011;43816;52.054;-9.494;2023-05-10T00:08:18;2.85;;;1.33;;
57615;SDS011;43816;52.054;-9.494;2023-05-10T00:08:31;2.55;;;1.40;;
57615;SDS011;43816;52.054;-9.494;2023-05-10T00:08:41;2.33;;;1.40;;
57615;SDS011;43816;52.054;-9.494;2023-05-10T00:08:51;2.28;;;1.38;;
57615;SDS011;43816;52.054;-9.494;2023-05-10T00:09:02;2.47;;;1.40;;
57615;SDS011;43816;52.054;-9.494;2023-05-10T00:09:12;2.30;;;1.30;;
57615;SDS011;43816;52.054;-9.494;2023-05-10T00:09:22;1.98;;;1.20;;
57615;SDS011;43816;52.054;-9.494;2023-05-10T00:09:33;2.00;;;1.23;;
57615;SDS011;43816;52.054;-9.494;2023-05-10T00:09:43;2.80;;;1.30;;
57615;SDS011;43816;52.054;-9.494;2023-05-10T00:09:56;3.17;;;1.40;;
57615;SDS011;43816;52.054;-9.494;2023-05-10T00:10:06;2.97;;;1.40;;
57615;SDS011;43816;52.054;-9.494;2023-05-10T00:10:17;2.53;;;1.40;;
57615;SDS011;43816;52.054;-9.494;2023-05-10T00:10:27;2.90;;;1.58;;
57615;SDS011;43816;52.054;-9.494;2023-05-10T00:10:44;3.13;;;1.57;;
57615;SDS011;43816;52.054;-9.494;2023-05-10T00:10:57;3.63;;;1.73;;
57615;SDS011;43816;52.054;-9.494;2023-05-10T00:11:07;3.33;;;1.70;;
57615;SDS011;43816;52.054;-9.494;2023-05-10T00:11:18;3.50;;;1.70;;
57615;SDS011;43816;52.054;-9.494;2023-05-10T00:11:31;2.73;;;1.50;;
57615;SDS011;43816;52.054;-9.494;2023-05-10T00:11:41;2.42;;;1.40;;
57615;SDS011;43816;52.054;-9.494;2023-05-10T00:11:51;2.00;;;1.30;;
57615;SDS011;43816;52.054;-9.494;2023-05-10T00:12:02;2.30;;;1.40;;
57615;SDS011;43816;52.054;-9.494;2023-05-10T00:12:14;2.22;;;1.30;;
57615;SDS011;43816;52.054;-9.494;2023-05-10T00:12:25;2.07;;;1.20;;
57615;SDS011;43816;52.054;-9.494;2023-05-10T00:12:35;1.90;;;1.17;;
57615;SDS011;43816;52.054;-9.494;2023-05-10T00:12:45;2.13;;;1.20;;
57615;SDS011;43816;52.054;-9.494;2023-05-10T00:12:58;2.50;;;1.30;;
57615;SDS011;43816;52.054;-9.494;2023-05-10T00:13:09;2.70;;;1.47;;
57615;SDS011;43816;52.054;-9.494;2023-05-10T00:13:19;2.13;;;1.25;;
57615;SDS011;43816;52.054;-9.494;2023-05-10T00:13:29;2.00;;;1.10;;
57615;SDS011;43816;52.054;-9.494;2023-05-10T00:13:40;1.73;;;1.10;;
57615;SDS011;43816;52.054;-9.494;2023-05-10T00:13:50;1.80;;;1.23;;
57615;SDS011;43816;52.054;-9.494;2023-05-10T00:14:00;2.23;;;1.33;;
57615;SDS011;43816;52.054;-9.494;2023-05-10T00:14:11;2.47;;;1.23;;
57615;SDS011;43816;52.054;-9.494;2023-05-10T00:14:21;2.65;;;1.25;;
57615;SDS011;43816;52.054;-9.494;2023-05-10T00:14:32;3.03;;;1.33;;
57615;SDS011;43816;52.054;-9.494;2023-05-10T00:14:42;3.07;;;1.40;;
57615;SDS011;43816;52.054;-9.494;2023-05-10T00:14:52;2.90;;;1.40;;
57615;SDS011;43816;52.054;-9.494;2023-05-10T00:15:03;2.37;;;1.30;;
57615;SDS011;43816;52.054;-9.494;2023-05-10T00:15:14;2.38;;;1.30;;
57615;SDS011;43816;52.054;-9.494;2023-05-10T00:15:24;2.17;;;1.13;;
57615;SDS011;43816;52.054;-9.494;2023-05-10T00:15:34;2.17;;;1.07;;
57615;SDS011;43816;52.054;-9.494;2023-05-10T00:15:45;2.10;;;1.02;;
57615;SDS011;43816;52.054;-9.494;2023-05-10T00:15:55;2.27;;;1.10;;
57615;SDS011;43816;52.054;-9.494;2023-05-10T00:16:05;2.57;;;1.20;;
57615;SDS011;43816;52.054;-9.494;2023-05-10T00:16:16;2.30;;;1.10;;
57615;SDS011;43816;52.054;-9.494;2023-05-10T00:16:26;2.33;;;1.20;;
57615;SDS011;43816;52.054;-9.494;2023-05-10T00:16:36;2.13;;;1.30;;
57615;SDS011;43816;52.054;-9.494;2023-05-10T00:16:47;2.37;;;1.40;;
57615;SDS011;43816;52.054;-9.494;2023-05-10T00:16:57;2.27;;;1.30;;
57615;SDS011;43816;52.054;-9.494;2023-05-10T00:17:07;2.20;;;1.20;;
57615;SDS011;43816;52.054;-9.494;2023-05-10T00:17:18;2.20;;;1.13;;
57615;SDS011;43816;52.054;-9.494;2023-05-10T00:17:31;3.22;;;1.30;;
57615;SDS011;43816;52.054;-9.494;2023-05-10T00:17:41;4.15;;;1.30;;
57615;SDS011;43816;52.054;-9.494;2023-05-10T00:17:52;3.67;;;1.37;;
57615;SDS011;43816;52.054;-9.494;2023-05-10T00:18:02;2.80;;;1.30;;
57615;SDS011;43816;52.054;-9.494;2023-05-10T00:18:12;1.95;;;1.38;;
57615;SDS011;43816;52.054;-9.494;2023-05-10T00:18:22;1.97;;;1.23;;
57615;SDS011;43816;52.054;-9.494;2023-05-10T00:18:36;1.97;;;1.20;;
57615;SDS011;43816;52.054;-9.494;2023-05-10T00:18:46;2.17;;;1.08;;
57615;SDS011;43816;52.054;-9.494;2023-05-10T00:18:56;2.33;;;1.10;;
57615;SDS011;43816;52.054;-9.494;2023-05-10T00:19:07;1.90;;;0.90;;
57615;SDS011;43816;52.054;-9.494;2023-05-10T00:19:17;2.33;;;1.00;;
57615;SDS011;43816;52.054;-9.494;2023-05-10T00:19:27;2.13;;;0.97;;
57615;SDS011;43816;52.054;-9.494;2023-05-10T00:19:38;2.50;;;1.10;;
57615;SDS011;43816;52.054;-9.494;2023-05-10T00:19:48;2.38;;;1.20;;
57615;SDS011;43816;52.054;-9.494;2023-05-10T00:19:58;2.33;;;1.20;;
57615;SDS011;43816;52.054;-9.494;2023-05-10T00:20:09;2.30;;;1.30;;
57615;SDS011;43816;52.054;-9.494;2023-05-10T00:20:20;2.47;;;1.30;;
57615;SDS011;43816;52.054;-9.494;2023-05-10T00:20:30;2.60;;;1.30;;
57615;SDS011;43816;52.054;-9.494;2023-05-10T00:20:41;2.40;;;1.33;;
57615;SDS011;43816;52.054;-9.494;2023-05-10T00:20:51;1.90;;;1.20;;
57615;SDS011;43816;52.054;-9.494;2023-05-10T00:21:01;2.10;;;1.27;;
57615;SDS011;43816;52.054;-9.494;2023-05-10T00:21:12;1.97;;;1.07;;
57615;SDS011;43816;52.054;-9.494;2023-05-10T00:21:25;2.22;;;1.15;;
57615;SDS011;43816;52.054;-9.494;2023-05-10T00:21:35;2.20;;;1.13;;
57615;SDS011;43816;52.054;-9.494;2023-05-10T00:21:46;2.23;;;1.23;;
57615;SDS011;43816;52.054;-9.494;2023-05-10T00:21:56;2.40;;;1.30;;
57615;SDS011;43816;52.054;-9.494;2023-05-10T00:22:06;1.90;;;1.20;;
57615;SDS011;43816;52.054;-9.494;2023-05-10T00:22:17;1.53;;;1.00;;
57615;SDS011;43816;52.054;-9.494;2023-05-10T00:22:27;1.45;;;1.00;;
57615;SDS011;43816;52.054;-9.494;2023-05-10T00:22:43;1.60;;;1.10;;
57615;SDS011;43816;52.054;-9.494;2023-05-10T00:22:53;2.00;;;1.20;;
57615;SDS011;43816;52.054;-9.494;2023-05-10T00:23:03;1.93;;;1.10;;
57615;SDS011;43816;52.054;-9.494;2023-05-10T00:23:14;1.88;;;1.10;;
57615;SDS011;43816;52.054;-9.494;2023-05-10T00:23:24;1.60;;;1.00;;
57615;SDS011;43816;52.054;-9.494;2023-05-10T00:23:35;1.60;;;1.05;;
57615;SDS011;43816;52.054;-9.494;2023-05-10T00:23:48;1.57;;;1.00;;
57615;SDS011;43816;52.054;-9.494;2023-05-10T00:23:58;2.00;;;1.10;;
57615;SDS011;43816;52.054;-9.494;2023-05-10T00:24:08;2.00;;;0.93;;
57615;SDS011;43816;52.054;-9.494;2023-05-10T00:24:19;1.95;;;1.00;;
57615;SDS011;43816;52.054;-9.494;2023-05-10T00:24:29;1.47;;;0.90;;
57615;SDS011;43816;52.054;-9.494;2023-05-10T00:24:39;1.57;;;1.00;;
57615;SDS011;43816;52.054;-9.494;2023-05-10T00:24:52;2.20;;;1.13;;
57615;SDS011;43816;52.054;-9.494;2023-05-10T00:25:03;2.60;;;1.40;;
57615;SDS011;43816;52.054;-9.494;2023-05-10T00:25:13;2.57;;;1.50;;
57615;SDS011;43816;52.054;-9.494;2023-05-10T00:25:24;1.95;;;1.42;;
57615;SDS011;43816;52.054;-9.494;2023-05-10T00:25:34;1.80;;;1.30;;
57615;SDS011;43816;52.054;-9.494;2023-05-10T00:25:44;1.75;;;1.15;;
57615;SDS011;43816;52.054;-9.494;2023-05-10T00:25:55;1.97;;;1.03;;
57615;SDS011;43816;52.054;-9.494;2023-05-10T00:26:06;1.92;;;1.00;;
57615;SDS011;43816;52.054;-9.494;2023-05-10T00:26:16;2.03;;;1.20;;
57615;SDS011;43816;52.054;-9.494;2023-05-10T00:26:29;1.92;;;1.23;;
57615;SDS011;43816;52.054;-9.494;2023-05-10T00:26:39;1.77;;;1.15;;
57615;SDS011;43816;52.054;-9.494;2023-05-10T00:26:49;1.77;;;1.00;;
57615;SDS011;43816;52.054;-9.494;2023-05-10T00:27:00;1.70;;;0.97;;
57615;SDS011;43816;52.054;-9.494;2023-05-10T00:27:10;1.80;;;1.00;;
57615;SDS011;43816;52.054;-9.494;2023-05-10T00:27:20;1.95;;;1.08;;
57615;SDS011;43816;52.054;-9.494;2023-05-10T00:27:34;1.63;;;1.00;;
57615;SDS011;43816;52.054;-9.494;2023-05-10T00:27:44;1.70;;;0.90;;
57615;SDS011;43816;52.054;-9.494;2023-05-10T00:27:54;1.63;;;0.90;;
57615;SDS011;43816;52.054;-9.494;2023-05-10T00:28:04;1.70;;;0.90;;
57615;SDS011;43816;52.054;-9.494;2023-05-10T00:28:15;2.00;;;1.00;;
57615;SDS011;43816;52.054;-9.494;2023-05-10T00:28:34;2.55;;;1.10;;
57615;SDS011;43816;52.054;-9.494;2023-05-10T00:28:44;2.08;;;1.00;;
57615;SDS011;43816;52.054;-9.494;2023-05-10T00:28:54;1.43;;;0.90;;
57615;SDS011;43816;52.054;-9.494;2023-05-10T00:29:05;1.67;;;1.00;;
57615;SDS011;43816;52.054;-9.494;2023-05-10T00:29:15;1.90;;;1.00;;
57615;SDS011;43816;52.054;-9.494;2023-05-10T00:29:25;1.97;;;1.00;;
57615;SDS011;43816;52.054;-9.494;2023-05-10T00:29:36;1.70;;;1.00;;
57615;SDS011;43816;52.054;-9.494;2023-05-10T00:29:46;1.50;;;0.90;;
57615;SDS011;43816;52.054;-9.494;2023-05-10T00:29:56;1.63;;;0.90;;
57615;SDS011;43816;52.054;-9.494;2023-05-10T00:30:07;1.67;;;0.90;;
57615;SDS011;43816;52.054;-9.494;2023-05-10T00:30:17;1.75;;;1.00;;
57615;SDS011;43816;52.054;-9.494;2023-05-10T00:30:30;2.17;;;1.00;;
57615;SDS011;43816;52.054;-9.494;2023-05-10T00:30:40;2.53;;;1.10;;
57615;SDS011;43816;52.054;-9.494;2023-05-10T00:30:51;1.88;;;1.20;;
57615;SDS011;43816;52.054;-9.494;2023-05-10T00:31:01;1.90;;;1.17;;
57615;SDS011;43816;52.054;-9.494;2023-05-10T00:31:11;1.60;;;1.00;;
57615;SDS011;43816;52.054;-9.494;2023-05-10T00:31:22;5.28;;;1.10;;
57615;SDS011;43816;52.054;-9.494;2023-05-10T00:31:32;5.37;;;1.20;;
57615;SDS011;43816;52.054;-9.494;2023-05-10T00:31:42;5.40;;;1.10;;
57615;SDS011;43816;52.054;-9.494;2023-05-10T00:31:53;1.92;;;1.00;;
57615;SDS011;43816;52.054;-9.494;2023-05-10T00:32:08;1.58;;;0.90;;
57615;SDS011;43816;52.054;-9.494;2023-05-10T00:32:19;1.75;;;1.00;;
57615;SDS011;43816;52.054;-9.494;2023-05-10T00:32:29;1.80;;;1.00;;
57615;SDS011;43816;52.054;-9.494;2023-05-10T00:32:39;1.90;;;1.00;;
57615;SDS011;43816;52.054;-9.494;2023-05-10T00:32:50;2.30;;;1.30;;
57615;SDS011;43816;52.054;-9.494;2023-05-10T00:33:03;2.17;;;1.30;;
57615;SDS011;43816;52.054;-9.494;2023-05-10T00:33:13;2.17;;;1.20;;
57615;SDS011;43816;52.054;-9.494;2023-05-10T00:33:23;3.53;;;1.20;;
57615;SDS011;43816;52.054;-9.494;2023-05-10T00:33:34;3.73;;;1.13;;
57615;SDS011;43816;52.054;-9.494;2023-05-10T00:33:44;3.40;;;1.10;;
57615;SDS011;43816;52.054;-9.494;2023-05-10T00:33:54;1.77;;;0.93;;
57615;SDS011;43816;52.054;-9.494;2023-05-10T00:34:08;1.43;;;0.90;;
57615;SDS011;43816;52.054;-9.494;2023-05-10T00:34:18;1.67;;;1.10;;
57615;SDS011;43816;52.054;-9.494;2023-05-10T00:34:28;1.80;;;1.10;;
57615;SDS011;43816;52.054;-9.494;2023-05-10T00:34:39;1.77;;;1.03;;
57615;SDS011;43816;52.054;-9.494;2023-05-10T00:34:49;1.65;;;0.80;;
57615;SDS011;43816;52.054;-9.494;2023-05-10T00:34:59;1.70;;;0.83;;
57615;SDS011;43816;52.054;-9.494;2023-05-10T00:35:10;2.07;;;1.00;;
57615;SDS011;43816;52.054;-9.494;2023-05-10T00:35:20;2.30;;;1.05;;
57615;SDS011;43816;52.054;-9.494;2023-05-10T00:35:30;2.27;;;1.03;;
57615;SDS011;43816;52.054;-9.494;2023-05-10T00:35:41;2.17;;;1.00;;
57615;SDS011;43816;52.054;-9.494;2023-05-10T00:35:51;1.83;;;0.90;;
57615;SDS011;43816;52.054;-9.494;2023-05-10T00:36:04;1.57;;;0.93;;
57615;SDS011;43816;52.054;-9.494;2023-05-10T00:36:15;2.08;;;1.17;;
57615;SDS011;43816;52.054;-9.494;2023-05-10T00:36:25;2.43;;;1.20;;
57615;SDS011;43816;52.054;-9.494;2023-05-10T00:36:36;2.53;;;1.30;;
57615;SDS011;43816;52.054;-9.494;2023-05-10T00:36:46;2.45;;;1.20;;
57615;SDS011;43816;52.054;-9.494;2023-05-10T00:36:56;2.43;;;1.27;;
57615;SDS011;43816;52.054;-9.494;2023-05-10T00:37:07;2.17;;;1.07;;
57615;SDS011;43816;52.054;-9.494;2023-05-10T00:37:17;2.30;;;1.13;;
57615;SDS011;43816;52.054;-9.494;2023-05-10T00:37:27;2.60;;;1.17;;
57615;SDS011;43816;52.054;-9.494;2023-05-10T00:37:40;2.63;;;1.23;;
57615;SDS011;43816;52.054;-9.494;2023-05-10T00:37:51;2.30;;;1.00;;
57615;SDS011;43816;52.054;-9.494;2023-05-10T00:38:01;1.98;;;0.98;;
57615;SDS011;43816;52.054;-9.494;2023-05-10T00:38:11;2.50;;;1.10;;
57615;SDS011;43816;52.054;-9.494;2023-05-10T00:38:22;2.27;;;1.20;;
57615;SDS011;43816;52.054;-9.494;2023-05-10T00:38:32;1.88;;;1.08;;
57615;SDS011;43816;52.054;-9.494;2023-05-10T00:38:43;1.85;;;0.95;;
57615;SDS011;43816;52.054;-9.494;2023-05-10T00:38:53;2.13;;;1.00;;
57615;SDS011;43816;52.054;-9.494;2023-05-10T00:39:03;2.10;;;1.10;;
57615;SDS011;43816;52.054;-9.494;2023-05-10T00:39:14;1.95;;;1.10;;
57615;SDS011;43816;52.054;-9.494;2023-05-10T00:39:24;1.90;;;0.97;;
57615;SDS011;43816;52.054;-9.494;2023-05-10T00:39:34;1.97;;;1.00;;
57615;SDS011;43816;52.054;-9.494;2023-05-10T00:39:44;1.40;;;0.90;;
57615;SDS011;43816;52.054;-9.494;2023-05-10T00:39:55;1.57;;;1.00;;
57615;SDS011;43816;52.054;-9.494;2023-05-10T00:40:05;1.80;;;0.97;;
57615;SDS011;43816;52.054;-9.494;2023-05-10T00:40:16;2.13;;;1.10;;
57615;SDS011;43816;52.054;-9.494;2023-05-10T00:40:26;1.83;;;1.10;;
57615;SDS011;43816;52.054;-9.494;2023-05-10T00:40:37;1.93;;;1.03;;
57615;SDS011;43816;52.054;-9.494;2023-05-10T00:40:47;2.23;;;1.00;;
57615;SDS011;43816;52.054;-9.494;2023-05-10T00:40:57;2.28;;;1.00;;
57615;SDS011;43816;52.054;-9.494;2023-05-10T00:41:08;2.00;;;1.00;;
57615;SDS011;43816;52.054;-9.494;2023-05-10T00:41:18;2.07;;;1.23;;
57615;SDS011;43816;52.054;-9.494;2023-05-10T00:41:29;2.10;;;1.23;;
57615;SDS011;43816;52.054;-9.494;2023-05-10T00:41:42;2.58;;;1.40;;
57615;SDS011;43816;52.054;-9.494;2023-05-10T00:41:53;2.70;;;1.20;;
57615;SDS011;43816;52.054;-9.494;2023-05-10T00:42:03;2.33;;;1.10;;
57615;SDS011;43816;52.054;-9.494;2023-05-10T00:42:13;2.03;;;1.10;;
57615;SDS011;43816;52.054;-9.494;2023-05-10T00:42:23;1.77;;;1.00;;
57615;SDS011;43816;52.054;-9.494;2023-05-10T00:42:34;2.10;;;1.20;;
57615;SDS011;43816;52.054;-9.494;2023-05-10T00:42:44;3.17;;;1.25;;
57615;SDS011;43816;52.054;-9.494;2023-05-10T00:42:54;3.17;;;1.30;;
57615;SDS011;43816;52.054;-9.494;2023-05-10T00:43:07;3.03;;;1.20;;
57615;SDS011;43816;52.054;-9.494;2023-05-10T00:43:18;2.00;;;1.10;;
57615;SDS011;43816;52.054;-9.494;2023-05-10T00:43:29;1.90;;;1.00;;
57615;SDS011;43816;52.054;-9.494;2023-05-10T00:43:39;1.80;;;1.00;;
57615;SDS011;43816;52.054;-9.494;2023-05-10T00:43:49;1.92;;;1.00;;
57615;SDS011;43816;52.054;-9.494;2023-05-10T00:43:59;2.23;;;1.10;;
57615;SDS011;43816;52.054;-9.494;2023-05-10T00:44:10;2.50;;;1.17;;
57615;SDS011;43816;52.054;-9.494;2023-05-10T00:44:20;2.40;;;1.10;;
57615;SDS011;43816;52.054;-9.494;2023-05-10T00:44:30;1.83;;;1.00;;
57615;SDS011;43816;52.054;-9.494;2023-05-10T00:44:41;1.60;;;1.00;;
57615;SDS011;43816;52.054;-9.494;2023-05-10T00:44:51;1.52;;;0.95;;
57615;SDS011;43816;52.054;-9.494;2023-05-10T00:45:01;1.90;;;1.10;;
57615;SDS011;43816;52.054;-9.494;2023-05-10T00:45:12;2.43;;;1.20;;
57615;SDS011;43816;52.054;-9.494;2023-05-10T00:45:22;2.92;;;1.15;;
57615;SDS011;43816;52.054;-9.494;2023-05-10T00:45:33;2.57;;;1.07;;
57615;SDS011;43816;52.054;-9.494;2023-05-10T00:45:45;2.10;;;1.00;;
57615;SDS011;43816;52.054;-9.494;2023-05-10T00:45:56;1.70;;;1.00;;
57615;SDS011;43816;52.054;-9.494;2023-05-10T00:46:10;1.58;;;1.00;;
57615;SDS011;43816;52.054;-9.494;2023-05-10T00:46:20;1.90;;;1.10;;
57615;SDS011;43816;52.054;-9.494;2023-05-10T00:46:31;2.10;;;1.10;;
57615;SDS011;43816;52.054;-9.494;2023-05-10T00:46:44;1.80;;;1.08;;
57615;SDS011;43816;52.054;-9.494;2023-05-10T00:46:55;1.52;;;1.00;;
57615;SDS011;43816;52.054;-9.494;2023-05-10T00:47:05;2.00;;;1.10;;
57615;SDS011;43816;52.054;-9.494;2023-05-10T00:47:22;2.00;;;1.08;;
57615;SDS011;43816;52.054;-9.494;2023-05-10T00:47:32;1.93;;;1.10;;
57615;SDS011;43816;52.054;-9.494;2023-05-10T00:47:43;1.80;;;1.10;;
57615;SDS011;43816;52.054;-9.494;2023-05-10T00:47:54;1.98;;;1.10;;
57615;SDS011;43816;52.054;-9.494;2023-05-10T00:48:04;1.90;;;1.00;;
57615;SDS011;43816;52.054;-9.494;2023-05-10T00:48:15;1.88;;;1.10;;
57615;SDS011;43816;52.054;-9.494;2023-05-10T00:48:28;2.05;;;1.10;;
57615;SDS011;43816;52.054;-9.494;2023-05-10T00:48:39;2.20;;;1.07;;
57615;SDS011;43816;52.054;-9.494;2023-05-10T00:48:49;2.22;;;1.00;;
57615;SDS011;43816;52.054;-9.494;2023-05-10T00:49:00;1.90;;;0.93;;
57615;SDS011;43816;52.054;-9.494;2023-05-10T00:49:13;1.63;;;0.88;;
57615;SDS011;43816;52.054;-9.494;2023-05-10T00:49:23;1.67;;;0.93;;
57615;SDS011;43816;52.054;-9.494;2023-05-10T00:49:38;2.13;;;1.10;;
57615;SDS011;43816;52.054;-9.494;2023-05-10T00:49:48;2.22;;;1.13;;
57615;SDS011;43816;52.054;-9.494;2023-05-10T00:49:59;1.80;;;1.00;;
57615;SDS011;43816;52.054;-9.494;2023-05-10T00:50:10;1.45;;;0.90;;
57615;SDS011;43816;52.054;-9.494;2023-05-10T00:50:21;1.50;;;0.97;;
57615;SDS011;43816;52.054;-9.494;2023-05-10T00:50:32;1.88;;;1.02;;
57615;SDS011;43816;52.054;-9.494;2023-05-10T00:50:43;2.28;;;1.10;;
57615;SDS011;43816;52.054;-9.494;2023-05-10T00:50:54;2.20;;;1.10;;
57615;SDS011;43816;52.054;-9.494;2023-05-10T00:51:04;2.25;;;1.20;;
57615;SDS011;43816;52.054;-9.494;2023-05-10T00:51:15;2.00;;;1.10;;
57615;SDS011;43816;52.054;-9.494;2023-05-10T00:51:25;2.10;;;1.20;;
57615;SDS011;43816;52.054;-9.494;2023-05-10T00:51:36;2.20;;;1.20;;
57615;SDS011;43816;52.054;-9.494;2023-05-10T00:51:46;2.25;;;1.10;;
57615;SDS011;43816;52.054;-9.494;2023-05-10T00:52:00;1.85;;;1.00;;
57615;SDS011;43816;52.054;-9.494;2023-05-10T00:52:10;1.70;;;0.95;;
57615;SDS011;43816;52.054;-9.494;2023-05-10T00:52:20;1.60;;;0.93;;
57615;SDS011;43816;52.054;-9.494;2023-05-10T00:52:31;1.88;;;0.95;;
57615;SDS011;43816;52.054;-9.494;2023-05-10T00:52:41;2.13;;;1.00;;
57615;SDS011;43816;52.054;-9.494;2023-05-10T00:52:52;2.33;;;1.10;;
57615;SDS011;43816;52.054;-9.494;2023-05-10T00:53:02;2.10;;;1.20;;
57615;SDS011;43816;52.054;-9.494;2023-05-10T00:53:13;2.28;;;1.23;;
57615;SDS011;43816;52.054;-9.494;2023-05-10T00:53:24;1.98;;;1.13;;
57615;SDS011;43816;52.054;-9.494;2023-05-10T00:53:35;2.08;;;1.20;;
57615;SDS011;43816;52.054;-9.494;2023-05-10T00:53:46;1.80;;;1.10;;
57615;SDS011;43816;52.054;-9.494;2023-05-10T00:53:56;1.93;;;1.10;;
57615;SDS011;43816;52.054;-9.494;2023-05-10T00:54:06;2.20;;;1.00;;
57615;SDS011;43816;52.054;-9.494;2023-05-10T00:54:17;2.40;;;1.00;;
57615;SDS011;43816;52.054;-9.494;2023-05-10T00:54:27;2.33;;;1.07;;
57615;SDS011;43816;52.054;-9.494;2023-05-10T00:54:38;2.20;;;1.05;;
57615;SDS011;43816;52.054;-9.494;2023-05-10T00:54:50;2.03;;;1.10;;
57615;SDS011;43816;52.054;-9.494;2023-05-10T00:55:01;2.05;;;0.93;;
57615;SDS011;43816;52.054;-9.494;2023-05-10T00:55:12;2.03;;;0.98;;
57615;SDS011;43816;52.054;-9.494;2023-05-10T00:55:22;1.67;;;0.97;;
57615;SDS011;43816;52.054;-9.494;2023-05-10T00:55:33;1.25;;;1.00;;
57615;SDS011;43816;52.054;-9.494;2023-05-10T00:55:43;1.50;;;0.93;;
57615;SDS011;43816;52.054;-9.494;2023-05-10T00:55:54;1.70;;;1.10;;
57615;SDS011;43816;52.054;-9.494;2023-05-10T00:56:05;1.85;;;1.20;;
57615;SDS011;43816;52.054;-9.494;2023-05-10T00:56:15;1.50;;;1.10;;
57615;SDS011;43816;52.054;-9.494;2023-05-10T00:56:26;1.90;;;1.20;;
57615;SDS011;43816;52.054;-9.494;2023-05-10T00:56:36;2.03;;;1.27;;
57615;SDS011;43816;52.054;-9.494;2023-05-10T00:56:47;2.40;;;1.37;;
57615;SDS011;43816;52.054;-9.494;2023-05-10T00:57:00;1.90;;;1.17;;
57615;SDS011;43816;52.054;-9.494;2023-05-10T00:57:10;2.15;;;1.05;;
57615;SDS011;43816;52.054;-9.494;2023-05-10T00:57:21;2.67;;;1.10;;
57615;SDS011;43816;52.054;-9.494;2023-05-10T00:57:32;2.50;;;1.00;;
57615;SDS011;43816;52.054;-9.494;2023-05-10T00:57:42;2.03;;;1.00;;
57615;SDS011;43816;52.054;-9.494;2023-05-10T00:57:53;1.53;;;0.97;;
57615;SDS011;43816;52.054;-9.494;2023-05-10T00:58:04;1.90;;;1.00;;
57615;SDS011;43816;52.054;-9.494;2023-05-10T00:58:14;2.00;;;1.00;;
57615;SDS011;43816;52.054;-9.494;2023-05-10T00:58:25;2.23;;;1.10;;
57615;SDS011;43816;52.054;-9.494;2023-05-10T00:58:35;2.42;;;1.10;;
57615;SDS011;43816;52.054;-9.494;2023-05-10T00:58:45;2.50;;;1.20;;
57615;SDS011;43816;52.054;-9.494;2023-05-10T00:58:56;2.13;;;1.13;;
57615;SDS011;43816;52.054;-9.494;2023-05-10T00:59:07;2.28;;;1.10;;
57615;SDS011;43816;52.054;-9.494;2023-05-10T00:59:21;2.33;;;1.10;;
57615;SDS011;43816;52.054;-9.494;2023-05-10T00:59:31;2.50;;;1.17;;
57615;SDS011;43816;52.054;-9.494;2023-05-10T00:59:41;2.30;;;1.17;;
57615;SDS011;43816;52.054;-9.494;2023-05-10T00:59:52;2.57;;;1.23;;
57615;SDS011;43816;52.054;-9.494;2023-05-10T01:00:02;2.38;;;1.20;;
57615;SDS011;43816;52.054;-9.494;2023-05-10T01:00:13;2.53;;;1.30;;
57615;SDS011;43816;52.054;-9.494;2023-05-10T01:00:24;2.45;;;1.30;;
57615;SDS011;43816;52.054;-9.494;2023-05-10T01:00:37;2.77;;;1.40;;
57615;SDS011;43816;52.054;-9.494;2023-05-10T01:00:51;2.63;;;1.20;;
57615;SDS011;43816;52.054;-9.494;2023-05-10T01:01:02;2.50;;;1.13;;
57615;SDS011;43816;52.054;-9.494;2023-05-10T01:01:12;2.40;;;1.20;;
57615;SDS011;43816;52.054;-9.494;2023-05-10T01:01:23;2.03;;;1.15;;
57615;SDS011;43816;52.054;-9.494;2023-05-10T01:01:34;2.10;;;1.10;;
57615;SDS011;43816;52.054;-9.494;2023-05-10T01:01:48;2.17;;;1.15;;
57615;SDS011;43816;52.054;-9.494;2023-05-10T01:01:58;2.47;;;1.20;;
57615;SDS011;43816;52.054;-9.494;2023-05-10T01:02:11;2.55;;;1.20;;
57615;SDS011;43816;52.054;-9.494;2023-05-10T01:02:22;2.08;;;1.00;;
57615;SDS011;43816;52.054;-9.494;2023-05-10T01:02:33;2.03;;;1.27;;
57615;SDS011;43816;52.054;-9.494;2023-05-10T01:02:44;2.40;;;1.20;;
57615;SDS011;43816;52.054;-9.494;2023-05-10T01:02:55;2.55;;;1.27;;
57615;SDS011;43816;52.054;-9.494;2023-05-10T01:03:05;2.35;;;1.10;;
57615;SDS011;43816;52.054;-9.494;2023-05-10T01:03:16;2.10;;;1.00;;
57615;SDS011;43816;52.054;-9.494;2023-05-10T01:03:26;1.87;;;1.10;;
57615;SDS011;43816;52.054;-9.494;2023-05-10T01:03:37;1.92;;;1.17;;
57615;SDS011;43816;52.054;-9.494;2023-05-10T01:03:49;2.60;;;1.30;;
57615;SDS011;43816;52.054;-9.494;2023-05-10T01:04:00;2.80;;;1.20;;
57615;SDS011;43816;52.054;-9.494;2023-05-10T01:04:11;2.50;;;1.17;;
57615;SDS011;43816;52.054;-9.494;2023-05-10T01:04:22;2.28;;;1.20;;
57615;SDS011;43816;52.054;-9.494;2023-05-10T01:04:32;2.40;;;1.17;;
57615;SDS011;43816;52.054;-9.494;2023-05-10T01:04:43;3.03;;;1.20;;
57615;SDS011;43816;52.054;-9.494;2023-05-10T01:04:53;2.77;;;1.20;;